Makaweli, HI (96769)

7:36 PM HST on December 04, 2016 (GMT -1000)
Barking Sands PMRF | | Change Station

Elev 13 ft 22.02 °N, 159.79 °W | Updated 40 minutes ago

Clear
Clear
75 °F
Feels Like 75 °F
N
6
Wind Variable Wind from SSE

Today
High -- | Low -- °F
--% Chance of Precip.
Yesterday
High -- | Low -- °F
Precip. -- in
Pressure 29.90 in
Visibility 10.0 miles
Clouds Clear
Dew Point 71 °F
Humidity 87%
Rainfall 0.16 in
Snow Depth Not available.
7:05 AM 5:57 PM
Waxing Crescent, 28% visible
METAR PHBK 050456Z AUTO 16005KT 10SM CLR 24/22 A2989 RMK AO2 SLP123 T02390217 $
Pressure 29.90 in
Visibility 10.0 miles
Clouds Clear
Dew Point 71 °F
Humidity 87%
Rainfall 0.16 in
Snow Depth Not available.
7:05 AM 5:57 PM
Waxing Crescent, 28% visible
METAR PHBK 050456Z AUTO 16005KT 10SM CLR 24/22 A2989 RMK AO2 SLP123 T02390217 $

10-Day Weather Forecast

Almanac

Astronomy

Dec. 04, 2016 Rise Set
Actual Time
Civil Twilight
Nautical Twilight
Astronomical Twilight
Moon
Length of Visible Light
Length of Day
Tomorrow will be .
, % of the Moon is Illuminated

Today's Extremes

State Highs State Lows

Community

WunderPhotos

Upload Photos

1,955,765 photos uploaded!

WunderBlog® & News

Nearby

Air Quality

  Air Quality AQ Index Pollutant
Not available.

Snow Depth

Station Depth Elevation

Earthquake Activity

City Distance Mag. Time & Date
Minimum magnitude displayed is 2.5.

Coastal Water Temperatures

Place Temperature

Stations

Nearby Weather Stations

Station Location Temp. Windchill Dew Point Humidity Wind Precip. Elev Updated Type
                   

Watches & Warnings

There are currently no watches in effect.